createdAt,value
2022-09-21T11:53:46.732Z,37.21
2022-09-21T11:57:19.174Z,36.09
2022-09-21T12:00:22.782Z,36.85
2022-09-21T12:03:31.221Z,37.87
2022-09-21T12:06:45.438Z,38.68
2022-09-21T12:09:53.302Z,38.72
2022-09-21T12:13:02.672Z,38.14
2022-09-21T12:16:18.038Z,37.76
2022-09-21T12:19:24.730Z,37.23
2022-09-21T12:22:29.566Z,35.06
2022-09-21T12:25:36.208Z,34.75
2022-09-21T12:29:53.007Z,33.96
2022-09-21T12:33:27.534Z,33.18
2022-09-21T12:36:40.938Z,33.30
2022-09-21T12:40:06.342Z,32.51
2022-09-21T12:43:10.031Z,32.60
2022-09-21T12:46:22.390Z,33.85
2022-09-21T12:49:30.361Z,34.40
2022-09-21T12:52:33.224Z,34.77
2022-09-21T12:55:56.715Z,36.16
2022-09-21T12:59:01.976Z,38.00
2022-09-21T13:02:20.061Z,38.54
2022-09-21T13:05:28.494Z,38.63
2022-09-21T13:08:36.648Z,38.07
2022-09-21T13:11:50.315Z,38.25
2022-09-21T13:14:57.927Z,37.46
2022-09-21T13:18:05.731Z,35.69
2022-09-21T13:21:17.039Z,36.60
2022-09-21T13:24:27.904Z,36.83
2022-09-21T13:28:01.041Z,37.71
2022-09-21T13:31:09.957Z,37.57
2022-09-21T13:34:42.992Z,36.69
2022-09-21T13:38:24.156Z,36.09
2022-09-21T13:41:45.352Z,36.00
2022-09-21T13:44:49.913Z,36.06
2022-09-21T13:47:54.379Z,36.73
2022-09-21T13:50:58.067Z,35.82
2022-09-21T13:54:02.155Z,36.13
2022-09-21T13:57:27.999Z,36.98
2022-09-21T14:00:53.361Z,37.51
2022-09-21T14:04:01.328Z,37.97
2022-09-21T14:07:07.743Z,39.81
2022-09-21T14:10:10.519Z,39.27
2022-09-21T14:13:26.563Z,39.49
2022-09-21T14:16:34.594Z,39.65
2022-09-21T14:19:37.174Z,41.93
2022-09-21T14:22:40.414Z,41.20
2022-09-21T14:25:53.361Z,42.42
2022-09-21T14:28:55.651Z,42.87
2022-09-21T14:32:01.654Z,41.34
2022-09-21T14:35:12.231Z,42.06
2022-09-21T14:38:24.897Z,41.29
2022-09-21T14:41:32.952Z,41.59
2022-09-21T14:44:35.834Z,40.86
2022-09-21T14:48:02.749Z,41.45
2022-09-21T14:51:19.976Z,40.32
2022-09-21T14:54:57.244Z,38.34
2022-09-21T14:58:31.444Z,39.11
2022-09-21T15:01:34.412Z,38.82
2022-09-21T15:04:43.917Z,38.54
2022-09-21T15:08:31.810Z,37.71
2022-09-21T15:11:39.950Z,37.57
2022-09-21T15:14:46.686Z,38.81
2022-09-21T15:17:59.269Z,38.34
2022-09-21T15:21:04.113Z,38.84
2022-09-21T15:24:26.756Z,36.41
2022-09-21T15:27:32.977Z,37.12
2022-09-21T15:30:45.785Z,37.50
2022-09-21T15:33:49.008Z,38.22
2022-09-21T15:36:52.802Z,38.60
2022-09-21T15:40:04.498Z,38.33
2022-09-21T15:43:20.634Z,39.13
2022-09-21T15:46:23.562Z,39.00
2022-09-21T15:49:28.125Z,39.61
2022-09-21T15:52:38.008Z,39.83
2022-09-21T15:55:41.169Z,39.37
2022-09-21T15:58:47.682Z,39.59
2022-09-21T16:01:53.297Z,39.91
2022-09-21T16:04:55.510Z,39.26
2022-09-21T16:08:21.236Z,40.18
2022-09-21T16:11:29.798Z,39.51
2022-09-21T16:14:50.309Z,39.77
2022-09-21T16:18:04.922Z,40.08
2022-09-21T16:21:21.218Z,40.40
2022-09-21T16:24:23.859Z,41.20
2022-09-21T16:27:32.142Z,40.94
2022-09-21T16:30:51.662Z,41.29
2022-09-21T16:34:02.166Z,40.81
2022-09-21T16:37:31.141Z,42.21
2022-09-21T16:40:33.400Z,41.97
2022-09-21T16:43:40.424Z,41.46
2022-09-21T16:46:44.013Z,42.08
2022-09-21T16:49:46.317Z,41.96
2022-09-21T16:52:51.578Z,42.85
2022-09-21T16:55:54.595Z,43.08
2022-09-21T16:58:57.214Z,43.73
2022-09-21T17:02:00.563Z,44.41
2022-09-21T17:05:03.050Z,45.48
2022-09-21T17:08:05.870Z,45.42
2022-09-21T17:11:08.057Z,45.31
2022-09-21T17:14:13.249Z,44.33
2022-09-21T17:17:20.047Z,43.96
2022-09-21T17:20:37.016Z,44.45
2022-09-21T17:23:39.323Z,44.73
2022-09-21T17:26:41.807Z,45.66
2022-09-21T17:29:48.363Z,45.21
2022-09-21T17:32:51.252Z,45.36
2022-09-21T17:35:56.457Z,45.72
2022-09-21T17:38:58.704Z,46.10
2022-09-21T17:42:05.745Z,45.98
2022-09-21T17:45:20.244Z,46.92
2022-09-21T17:48:23.280Z,46.95
2022-09-21T17:51:44.137Z,46.71
2022-09-21T17:54:46.656Z,46.97
2022-09-21T17:58:07.602Z,47.70
2022-09-21T18:01:36.234Z,46.96
2022-09-21T18:04:38.961Z,46.70
2022-09-21T18:07:41.651Z,46.95
2022-09-21T18:10:49.245Z,46.45
2022-09-21T18:14:07.076Z,46.11
2022-09-21T18:17:24.302Z,46.34
2022-09-21T18:20:51.649Z,47.01
2022-09-21T18:24:30.760Z,46.95
2022-09-21T18:27:34.522Z,47.55
2022-09-21T18:30:41.261Z,47.75
2022-09-21T18:34:30.939Z,49.12
2022-09-21T18:37:35.971Z,48.59
2022-09-21T18:41:00.395Z,48.63
2022-09-21T18:44:04.289Z,48.11
2022-09-21T18:47:19.632Z,48.35
2022-09-21T18:50:33.457Z,49.00
2022-09-21T18:53:55.983Z,49.52
2022-09-21T18:56:59.264Z,50.33
2022-09-21T19:00:01.793Z,50.10
2022-09-21T19:03:23.741Z,49.53
2022-09-21T19:06:46.240Z,50.12
2022-09-21T19:10:19.789Z,50.12
2022-09-21T19:13:47.314Z,51.04
2022-09-21T19:17:05.104Z,50.70
2022-09-21T19:20:41.748Z,51.08
2022-09-21T19:24:21.637Z,50.56
2022-09-21T19:27:35.727Z,51.60
2022-09-21T19:30:40.336Z,51.41
2022-09-21T19:33:50.485Z,51.48
2022-09-21T19:36:57.375Z,52.88
2022-09-21T19:39:59.859Z,52.58
2022-09-21T19:43:05.152Z,52.32
2022-09-21T19:46:34.190Z,52.09
2022-09-21T19:49:45.025Z,52.66
2022-09-21T19:52:47.648Z,52.36
2022-09-21T19:56:08.562Z,52.61
2022-09-21T19:59:29.576Z,52.45
2022-09-21T20:02:39.474Z,52.72
2022-09-21T20:06:11.841Z,53.01
2022-09-21T20:09:16.945Z,54.42
2022-09-21T20:12:25.403Z,55.05
2022-09-21T20:15:32.777Z,53.18
2022-09-21T20:18:39.916Z,54.00
2022-09-21T20:21:43.773Z,53.46
2022-09-21T20:24:50.857Z,52.96
2022-09-21T20:27:56.992Z,53.83
2022-09-21T20:30:59.245Z,53.33
2022-09-21T20:34:01.566Z,53.49
2022-09-21T20:37:10.091Z,53.53
2022-09-21T20:40:13.301Z,54.06
2022-09-21T20:43:15.706Z,54.30
2022-09-21T20:46:18.027Z,53.75
2022-09-21T20:49:20.314Z,53.81
2022-09-21T20:52:23.159Z,54.26
2022-09-21T20:55:25.590Z,53.95
2022-09-21T20:58:29.182Z,54.24
2022-09-21T21:01:31.500Z,55.16
2022-09-21T21:04:34.087Z,55.24
2022-09-21T21:07:36.548Z,56.40
2022-09-21T21:10:38.787Z,56.56
2022-09-21T21:13:41.575Z,55.64
2022-09-21T21:16:44.098Z,57.05
2022-09-21T21:19:46.425Z,57.41
2022-09-21T21:22:49.960Z,57.40
2022-09-21T21:25:52.159Z,57.31
2022-09-21T21:28:54.386Z,58.04
2022-09-21T21:31:56.736Z,57.17
2022-09-21T21:34:59.283Z,56.99
2022-09-21T21:38:02.414Z,58.08
2022-09-21T21:41:05.171Z,57.94
2022-09-21T21:44:07.547Z,58.68
2022-09-21T21:47:37.736Z,57.89
2022-09-21T21:50:35.991Z,57.94
2022-09-21T21:53:39.282Z,57.46
2022-09-21T21:56:41.549Z,57.35
2022-09-21T21:59:43.814Z,59.23
2022-09-21T22:02:46.396Z,58.37
2022-09-21T22:05:48.675Z,59.36
2022-09-21T22:08:51.649Z,59.47
2022-09-21T22:11:53.984Z,58.45
2022-09-21T22:14:56.196Z,58.01
2022-09-21T22:17:58.407Z,58.45
2022-09-21T22:21:06.905Z,59.29
2022-09-21T22:24:09.877Z,58.38
2022-09-21T22:27:12.138Z,59.77
2022-09-21T22:30:14.443Z,59.34
2022-09-21T22:33:16.881Z,58.88
2022-09-21T22:36:21.535Z,60.18
2022-09-21T22:39:23.786Z,60.09
2022-09-21T22:42:26.280Z,60.21
2022-09-21T22:45:28.620Z,59.59
2022-09-21T22:48:30.946Z,59.83
2022-09-21T22:51:34.076Z,59.12
2022-09-21T22:54:36.285Z,60.05
2022-09-21T22:57:38.491Z,58.65
2022-09-21T23:00:41.836Z,58.65
2022-09-21T23:03:45.243Z,58.26
2022-09-21T23:06:49.717Z,59.31
2022-09-21T23:09:51.917Z,59.42
2022-09-21T23:12:54.114Z,59.69
2022-09-21T23:16:10.680Z,59.47
2022-09-21T23:19:16.341Z,60.50
2022-09-21T23:22:19.871Z,59.76
2022-09-21T23:25:22.506Z,60.56
2022-09-21T23:28:24.763Z,60.40
2022-09-21T23:31:28.521Z,60.57
2022-09-21T23:34:30.813Z,60.00
2022-09-21T23:37:33.136Z,59.64
2022-09-21T23:40:35.384Z,60.52
2022-09-21T23:43:39.231Z,59.27
2022-09-21T23:46:42.049Z,60.07
2022-09-21T23:49:44.295Z,59.97
2022-09-21T23:52:46.652Z,60.74
2022-09-21T23:55:49.150Z,60.26
2022-09-21T23:58:51.437Z,59.93
